Time;durP1;ratioP1;P1;durP2;ratioP2;P2;SDS_P1;SDS_P2;PMS_P1;PMS_P2;Temp;Humidity;BMP_temperature;BMP_pressure;BME280_temperature;BME280_humidity;BME280_pressure;Samples;Min_cycle;Max_cycle;Signal;HPM_P1;HPM_P2
2023/11/02 00:01:55;;;;;;;3.08;2.78;;;;;;;;;;10290212;28;20080;-66
2023/11/02 00:06:55;;;;;;;4.50;2.13;;;;;;;;;;10291491;28;20080;-65
2023/11/02 00:11:57;;;;;;;2.22;2.05;;;;;;;;;;10291225;28;20045;-66
2023/11/02 00:16:56;;;;;;;2.95;2.55;;;;;;;;;;10289405;28;20083;-66
2023/11/02 00:21:54;;;;;;;3.80;2.10;;;;;;;;;;10285599;28;20121;-66
2023/11/02 00:26:52;;;;;;;2.17;1.92;;;;;;;;;;10286455;28;20068;-66
2023/11/02 00:31:52;;;;;;;2.90;1.90;;;;;;;;;;10288249;28;20076;-66
2023/11/02 00:36:50;;;;;;;4.55;2.63;;;;;;;;;;10290588;28;20084;-66
2023/11/02 00:41:49;;;;;;;4.00;2.45;;;;;;;;;;10290337;28;20080;-66
2023/11/02 00:46:47;;;;;;;5.13;2.95;;;;;;;;;;10290235;28;20076;-66
2023/11/02 00:51:52;;;;;;;3.25;2.95;;;;;;;;;;10286291;28;20091;-66
2023/11/02 00:56:50;;;;;;;;;;;;;;;;;;10295917;28;20098;-66
2023/11/02 01:01:48;;;;;;;3.30;2.75;;;;;;;;;;10288516;28;19963;-66
2023/11/02 01:06:47;;;;;;;4.20;2.75;;;;;;;;;;10289744;28;20072;-66
2023/11/02 01:11:46;;;;;;;4.57;2.90;;;;;;;;;;10295208;28;20072;-66
2023/11/02 01:16:44;;;;;;;4.65;2.63;;;;;;;;;;10297444;28;20076;-66
2023/11/02 01:21:42;;;;;;;5.85;3.47;;;;;;;;;;10297172;28;20569;-65
2023/11/02 01:26:53;;;;;;;7.95;3.83;;;;;;;;;;10290654;28;20068;-65
2023/11/02 01:31:52;;;;;;;5.35;4.70;;;;;;;;;;10291077;28;20181;-66
2023/11/02 01:36:52;;;;;;;6.55;4.57;;;;;;;;;;10294533;28;20085;-66
2023/11/02 01:42:00;;;;;;;6.65;4.40;;;;;;;;;;10301425;28;20096;-65
2023/11/02 01:47:03;;;;;;;6.93;4.63;;;;;;;;;;10297136;28;20076;-65
2023/11/02 01:52:04;;;;;;;8.77;5.13;;;;;;;;;;10295214;28;20545;-65
2023/11/02 01:57:07;;;;;;;4.82;4.00;;;;;;;;;;10301993;28;20049;-65
2023/11/02 02:02:08;;;;;;;5.90;4.18;;;;;;;;;;10299681;28;20584;-65
2023/11/02 02:07:12;;;;;;;2.60;1.92;;;;;;;;;;10297736;28;20501;-65
2023/11/02 02:12:14;;;;;;;4.03;3.20;;;;;;;;;;10302966;28;20040;-67
2023/11/02 02:17:16;;;;;;;6.60;4.28;;;;;;;;;;10294100;28;20079;-66
2023/11/02 02:22:16;;;;;;;3.58;2.15;;;;;;;;;;10293808;28;20461;-65
2023/11/02 02:27:30;;;;;;;3.58;2.75;;;;;;;;;;10299405;28;20072;-65
2023/11/02 02:32:41;;;;;;;5.47;2.42;;;;;;;;;;10291801;28;20084;-65
2023/11/02 02:37:44;;;;;;;2.30;1.98;;;;;;;;;;10292397;28;20099;-65
2023/11/02 02:42:45;;;;;;;2.40;2.20;;;;;;;;;;10295121;28;20079;-65
2023/11/02 02:47:44;;;;;;;5.75;1.67;;;;;;;;;;10295557;28;20068;-65
2023/11/02 02:52:46;;;;;;;3.13;1.90;;;;;;;;;;10293630;28;20072;-66
2023/11/02 02:57:46;;;;;;;2.92;2.10;;;;;;;;;;10288926;28;20044;-65
2023/11/02 03:02:46;;;;;;;4.57;2.08;;;;;;;;;;10287964;28;20487;-66
2023/11/02 03:07:47;;;;;;;2.17;1.95;;;;;;;;;;10292492;28;20526;-65
2023/11/02 03:12:47;;;;;;;3.72;2.30;;;;;;;;;;10292339;28;20072;-65
2023/11/02 03:17:55;;;;;;;1.92;1.83;;;;;;;;;;10291014;28;20088;-65
2023/11/02 03:22:58;;;;;;;2.75;2.20;;;;;;;;;;10291465;28;20077;-65
2023/11/02 03:28:02;;;;;;;2.67;2.08;;;;;;;;;;10292274;28;20077;-65
2023/11/02 03:33:05;;;;;;;6.20;2.22;;;;;;;;;;10290991;28;20071;-65
2023/11/02 03:38:11;;;;;;;2.05;1.85;;;;;;;;;;10293636;28;20095;-65
2023/11/02 03:43:12;;;;;;;2.30;2.10;;;;;;;;;;10290269;28;20068;-66
2023/11/02 03:48:14;;;;;;;4.60;2.60;;;;;;;;;;10291122;28;20064;-65
2023/11/02 03:53:19;;;;;;;6.47;2.63;;;;;;;;;;10290183;28;20155;-65
2023/11/02 03:58:26;;;;;;;6.25;2.67;;;;;;;;;;10291190;28;20109;-65
2023/11/02 04:03:27;;;;;;;2.20;2.00;;;;;;;;;;10291232;28;20077;-66
2023/11/02 04:08:29;;;;;;;3.08;2.25;;;;;;;;;;10290134;28;20091;-66
2023/11/02 04:13:31;;;;;;;2.17;1.98;;;;;;;;;;10290695;28;20071;-65
2023/11/02 04:18:29;;;;;;;4.45;3.85;;;;;;;;;;10291731;28;20080;-66
2023/11/02 04:23:29;;;;;;;2.90;2.60;;;;;;;;;;10290679;28;20075;-66
2023/11/02 04:28:27;;;;;;;5.22;2.70;;;;;;;;;;10289441;28;20067;-68
2023/11/02 04:33:25;;;;;;;3.75;2.90;;;;;;;;;;10287418;28;20071;-65
2023/11/02 04:38:23;;;;;;;5.65;2.75;;;;;;;;;;10285052;28;21878;-65
2023/11/02 04:43:23;;;;;;;4.65;2.78;;;;;;;;;;10289885;28;20041;-65
2023/11/02 04:48:21;;;;;;;4.55;2.75;;;;;;;;;;10289630;28;20106;-65
2023/11/02 04:53:21;;;;;;;3.97;3.33;;;;;;;;;;10289566;28;20143;-65
2023/11/02 04:58:20;;;;;;;5.10;2.60;;;;;;;;;;10284999;28;20469;-65
2023/11/02 05:03:19;;;;;;;5.95;3.10;;;;;;;;;;10291040;28;20100;-65
2023/11/02 05:08:18;;;;;;;4.35;3.53;;;;;;;;;;10289331;28;20037;-66
2023/11/02 05:13:16;;;;;;;5.53;4.20;;;;;;;;;;10287720;28;20102;-65
2023/11/02 05:18:14;;;;;;;6.85;4.10;;;;;;;;;;10289667;28;20073;-65
2023/11/02 05:23:14;;;;;;;7.10;4.03;;;;;;;;;;10287049;28;20075;-65
2023/11/02 05:28:12;;;;;;;4.45;3.97;;;;;;;;;;10289539;28;20068;-65
2023/11/02 05:33:10;;;;;;;9.05;3.97;;;;;;;;;;10283569;28;20076;-64
2023/11/02 05:38:08;;;;;;;7.18;3.97;;;;;;;;;;10281532;28;20511;-65
2023/11/02 05:43:08;;;;;;;5.75;3.83;;;;;;;;;;10289213;28;20087;-65
2023/11/02 05:48:06;;;;;;;6.70;4.50;;;;;;;;;;10283958;28;20080;-65
2023/11/02 05:53:05;;;;;;;9.15;4.85;;;;;;;;;;10279680;28;20502;-64
2023/11/02 05:58:03;;;;;;;9.02;4.47;;;;;;;;;;10290510;28;20079;-65
2023/11/02 06:03:03;;;;;;;7.78;3.83;;;;;;;;;;10289804;28;20076;-65
2023/11/02 06:08:01;;;;;;;4.10;3.67;;;;;;;;;;10285394;28;20076;-66
2023/11/02 06:12:59;;;;;;;6.68;4.28;;;;;;;;;;10296473;28;20071;-66
2023/11/02 06:17:58;;;;;;;8.25;4.40;;;;;;;;;;10283902;28;20498;-64
2023/11/02 06:22:58;;;;;;;6.18;3.90;;;;;;;;;;10281470;28;20075;-64
2023/11/02 06:27:56;;;;;;;6.22;3.70;;;;;;;;;;10284539;28;20088;-65
2023/11/02 06:32:57;;;;;;;8.30;4.40;;;;;;;;;;10292561;28;20076;-65
2023/11/02 06:37:56;;;;;;;10.75;4.45;;;;;;;;;;10288586;28;20094;-65
2023/11/02 06:42:57;;;;;;;5.93;3.65;;;;;;;;;;10283969;28;20079;-65
2023/11/02 06:47:56;;;;;;;4.90;3.10;;;;;;;;;;10288109;28;20061;-65
2023/11/02 06:52:55;;;;;;;13.25;4.75;;;;;;;;;;10292194;28;20510;-65
2023/11/02 06:57:53;;;;;;;7.43;4.45;;;;;;;;;;10290946;28;20484;-65
2023/11/02 07:02:53;;;;;;;6.03;4.75;;;;;;;;;;10290485;28;20076;-65
2023/11/02 07:07:51;;;;;;;7.00;4.20;;;;;;;;;;10291689;28;20076;-65
2023/11/02 07:12:49;;;;;;;5.10;4.25;;;;;;;;;;10289242;28;20064;-65
2023/11/02 07:17:47;;;;;;;4.93;4.20;;;;;;;;;;10291279;28;20077;-65
2023/11/02 07:22:47;;;;;;;6.03;3.78;;;;;;;;;;10291106;28;20068;-65
2023/11/02 07:27:45;;;;;;;5.15;4.07;;;;;;;;;;10291506;28;20092;-65
2023/11/02 07:32:43;;;;;;;8.27;3.72;;;;;;;;;;10293164;28;20084;-65
2023/11/02 07:37:42;;;;;;;5.55;4.13;;;;;;;;;;10285507;28;20071;-66
2023/11/02 07:42:41;;;;;;;6.10;4.13;;;;;;;;;;10289528;28;20470;-64
2023/11/02 07:47:39;;;;;;;4.88;3.90;;;;;;;;;;10289980;28;20079;-65
2023/11/02 07:52:40;;;;;;;10.25;3.95;;;;;;;;;;10287374;28;20483;-65
2023/11/02 07:57:38;;;;;;;5.75;4.90;;;;;;;;;;10284268;28;20073;-65
2023/11/02 08:02:38;;;;;;;6.43;4.20;;;;;;;;;;10285420;28;20060;-65
2023/11/02 08:07:36;;;;;;;10.95;5.50;;;;;;;;;;10286245;28;20087;-65
2023/11/02 08:12:35;;;;;;;10.23;4.05;;;;;;;;;;10289208;28;20068;-66
2023/11/02 08:17:34;;;;;;;6.20;3.70;;;;;;;;;;10287080;28;20084;-64
2023/11/02 08:22:36;;;;;;;6.70;4.47;;;;;;;;;;10289528;28;20080;-64
2023/11/02 08:27:34;;;;;;;9.00;4.47;;;;;;;;;;10285321;28;20076;-65
2023/11/02 08:32:32;;;;;;;8.15;5.05;;;;;;;;;;10287758;28;20087;-65
2023/11/02 08:37:31;;;;;;;10.48;5.10;;;;;;;;;;10288350;28;20076;-64
2023/11/02 08:42:30;;;;;;;10.27;5.68;;;;;;;;;;10290523;28;20076;-65
2023/11/02 08:47:28;;;;;;;9.80;4.43;;;;;;;;;;10290370;28;20080;-64
2023/11/02 08:52:27;;;;;;;4.22;3.13;;;;;;;;;;10289225;28;20083;-65
2023/11/02 08:57:26;;;;;;;3.92;3.25;;;;;;;;;;10288718;28;20073;-65
2023/11/02 09:02:25;;;;;;;8.23;3.88;;;;;;;;;;10290292;28;20064;-65
2023/11/02 09:07:24;;;;;;;7.90;3.65;;;;;;;;;;10289867;28;20111;-65
2023/11/02 09:12:22;;;;;;;7.88;3.90;;;;;;;;;;10284006;28;20061;-65
2023/11/02 09:17:21;;;;;;;6.70;3.50;;;;;;;;;;10290788;28;20072;-65
2023/11/02 09:22:20;;;;;;;4.20;3.78;;;;;;;;;;10289183;28;20075;-67
2023/11/02 09:27:20;;;;;;;9.50;4.50;;;;;;;;;;10287992;28;20063;-65
2023/11/02 09:32:19;;;;;;;4.30;3.72;;;;;;;;;;10297585;28;20099;-65
2023/11/02 09:37:17;;;;;;;5.95;4.05;;;;;;;;;;10296961;28;20075;-65
2023/11/02 09:42:17;;;;;;;9.35;4.45;;;;;;;;;;10295713;28;20056;-65
2023/11/02 09:47:15;;;;;;;6.60;4.47;;;;;;;;;;10296026;28;20112;-66
2023/11/02 09:52:13;;;;;;;5.47;4.63;;;;;;;;;;10297572;28;20095;-65
2023/11/02 09:57:11;;;;;;;6.68;4.20;;;;;;;;;;10295821;28;20075;-65
2023/11/02 10:02:12;;;;;;;4.80;4.15;;;;;;;;;;10294667;28;20542;-65
2023/11/02 10:07:11;;;;;;;6.82;4.53;;;;;;;;;;10294315;28;20095;-65
2023/11/02 10:12:09;;;;;;;6.47;5.18;;;;;;;;;;10296129;28;20064;-65
2023/11/02 10:17:09;;;;;;;7.28;5.63;;;;;;;;;;10292704;28;20060;-65
2023/11/02 10:22:09;;;;;;;7.88;6.15;;;;;;;;;;10294122;28;20061;-65
2023/11/02 10:27:10;;;;;;;7.32;5.78;;;;;;;;;;10291807;28;20080;-66
2023/11/02 10:32:11;;;;;;;8.45;6.00;;;;;;;;;;10293294;28;20072;-65
2023/11/02 10:37:11;;;;;;;13.80;9.95;;;;;;;;;;10291644;28;20072;-65
2023/11/02 10:42:09;;;;;;;8.00;4.53;;;;;;;;;;10294532;28;20083;-66
2023/11/02 10:47:08;;;;;;;6.95;4.32;;;;;;;;;;10292863;28;20068;-65
2023/11/02 10:52:08;;;;;;;7.07;4.97;;;;;;;;;;10293720;28;20471;-66
2023/11/02 10:57:14;;;;;;;6.65;4.18;;;;;;;;;;10293352;28;20095;-66
2023/11/02 11:02:14;;;;;;;8.13;7.20;;;;;;;;;;10294435;28;20076;-66
2023/11/02 11:07:12;;;;;;;6.53;4.35;;;;;;;;;;10296201;28;20072;-66
2023/11/02 11:12:14;;;;;;;7.45;6.68;;;;;;;;;;10293231;28;20464;-65
2023/11/02 11:17:12;;;;;;;5.55;4.30;;;;;;;;;;10287826;28;20072;-65
2023/11/02 11:22:13;;;;;;;9.10;5.05;;;;;;;;;;10293137;28;20518;-65
2023/11/02 11:27:12;;;;;;;8.88;5.18;;;;;;;;;;10292836;28;20052;-65
2023/11/02 11:32:32;;;;;;;9.45;4.88;;;;;;;;;;10291715;28;20061;-66
2023/11/02 11:37:34;;;;;;;6.72;4.60;;;;;;;;;;10292243;28;20076;-65
2023/11/02 11:42:50;;;;;;;6.82;5.40;;;;;;;;;;10291473;28;20068;-65
2023/11/02 11:47:50;;;;;;;8.70;5.55;;;;;;;;;;10293055;28;20080;-65
2023/11/02 11:52:49;;;;;;;8.10;5.20;;;;;;;;;;10289831;28;21105;-65
2023/11/02 11:57:59;;;;;;;13.05;7.05;;;;;;;;;;10289764;28;20099;-65
2023/11/02 12:03:04;;;;;;;11.98;5.43;;;;;;;;;;10287621;28;20068;-65
2023/11/02 12:08:02;;;;;;;7.72;5.95;;;;;;;;;;10306427;28;20079;-65
2023/11/02 12:13:01;;;;;;;5.32;4.57;;;;;;;;;;10290491;28;20068;-64
2023/11/02 12:18:01;;;;;;;8.07;5.47;;;;;;;;;;10289594;28;20486;-64
2023/11/02 12:22:59;;;;;;;9.75;4.80;;;;;;;;;;10291902;28;20076;-65
2023/11/02 12:28:00;;;;;;;5.43;4.55;;;;;;;;;;10291105;28;20048;-64
2023/11/02 12:32:58;;;;;;;7.38;5.45;;;;;;;;;;10290156;28;20502;-64
2023/11/02 12:38:01;;;;;;;10.70;5.22;;;;;;;;;;10284558;28;20091;-65
2023/11/02 12:43:00;;;;;;;6.60;5.17;;;;;;;;;;10288186;28;20065;-65
2023/11/02 12:47:58;;;;;;;6.90;4.32;;;;;;;;;;10290523;28;20072;-65
2023/11/02 12:53:02;;;;;;;6.53;5.40;;;;;;;;;;10289463;28;20080;-65
2023/11/02 12:58:02;;;;;;;8.63;5.72;;;;;;;;;;10288690;28;20076;-66
2023/11/02 13:03:15;;;;;;;8.25;6.28;;;;;;;;;;10289823;28;20069;-65
2023/11/02 13:08:21;;;;;;;9.07;5.82;;;;;;;;;;10298740;28;20081;-66
2023/11/02 13:13:19;;;;;;;10.30;5.53;;;;;;;;;;10297897;28;20076;-65
2023/11/02 13:18:18;;;;;;;10.05;5.47;;;;;;;;;;10296394;28;20095;-67
2023/11/02 13:23:16;;;;;;;7.00;5.85;;;;;;;;;;10296672;28;20113;-66
2023/11/02 13:28:16;;;;;;;9.35;5.60;;;;;;;;;;10291474;28;20072;-66
2023/11/02 13:33:14;;;;;;;10.60;5.25;;;;;;;;;;10296459;28;20068;-65
2023/11/02 13:38:12;;;;;;;11.02;5.55;;;;;;;;;;10296341;28;20068;-65
2023/11/02 13:43:10;;;;;;;7.47;6.05;;;;;;;;;;10295205;28;20064;-64
2023/11/02 13:48:12;;;;;;;6.60;5.82;;;;;;;;;;10295360;28;20087;-67
2023/11/02 13:53:11;;;;;;;7.07;5.63;;;;;;;;;;10296789;28;20072;-64
2023/11/02 13:58:09;;;;;;;7.43;6.22;;;;;;;;;;10291647;28;20484;-65
2023/11/02 14:03:08;;;;;;;7.55;6.32;;;;;;;;;;10296127;28;20080;-66
2023/11/02 14:08:07;;;;;;;11.88;7.10;;;;;;;;;;10296495;28;20086;-66
2023/11/02 14:13:08;;;;;;;6.85;6.15;;;;;;;;;;10297070;28;20083;-66
2023/11/02 14:18:07;;;;;;;6.88;6.15;;;;;;;;;;10294133;28;20504;-65
2023/11/02 14:23:05;;;;;;;11.73;7.20;;;;;;;;;;10294037;28;20114;-66
2023/11/02 14:28:05;;;;;;;13.00;8.25;;;;;;;;;;10295768;28;20075;-66
2023/11/02 14:33:04;;;;;;;16.58;7.75;;;;;;;;;;10293987;28;20076;-66
2023/11/02 14:38:02;;;;;;;9.88;6.38;;;;;;;;;;10295088;28;20072;-66
2023/11/02 14:43:04;;;;;;;9.82;8.18;;;;;;;;;;10294513;28;20087;-66
2023/11/02 14:48:05;;;;;;;7.90;7.18;;;;;;;;;;10292980;28;20156;-65
2023/11/02 14:53:03;;;;;;;9.55;6.80;;;;;;;;;;10294082;28;20127;-66
2023/11/02 14:58:01;;;;;;;7.55;6.75;;;;;;;;;;10291759;28;20080;-66
2023/11/02 15:02:59;;;;;;;10.18;7.25;;;;;;;;;;10294217;28;20446;-66
2023/11/02 15:07:59;;;;;;;8.07;6.22;;;;;;;;;;10293216;28;20130;-66
2023/11/02 15:12:57;;;;;;;10.18;6.97;;;;;;;;;;10293541;28;20521;-67
2023/11/02 15:17:56;;;;;;;11.13;7.60;;;;;;;;;;10289850;28;20498;-67
2023/11/02 15:22:55;;;;;;;11.93;6.68;;;;;;;;;;10292355;28;20546;-67
2023/11/02 15:27:55;;;;;;;8.02;6.85;;;;;;;;;;10289842;28;20068;-66
2023/11/02 15:32:53;;;;;;;10.05;7.20;;;;;;;;;;10285125;28;20069;-65
2023/11/02 15:37:51;;;;;;;13.85;9.52;;;;;;;;;;10280438;28;20073;-65
2023/11/02 15:42:49;;;;;;;11.98;10.27;;;;;;;;;;10287522;28;20083;-66
2023/11/02 15:47:49;;;;;;;15.82;8.52;;;;;;;;;;10283388;28;20080;-65
2023/11/02 15:52:51;;;;;;;11.40;8.35;;;;;;;;;;10284831;28;20079;-66
2023/11/02 15:57:50;;;;;;;9.02;7.75;;;;;;;;;;10287482;28;20077;-66
2023/11/02 16:02:50;;;;;;;15.23;9.65;;;;;;;;;;10274289;28;20072;-66
2023/11/02 16:07:49;;;;;;;12.70;10.75;;;;;;;;;;10282617;28;20069;-66
2023/11/02 16:12:47;;;;;;;15.35;11.07;;;;;;;;;;10282514;28;20087;-65
2023/11/02 16:17:46;;;;;;;14.27;10.80;;;;;;;;;;10284738;28;20096;-66
2023/11/02 16:22:46;;;;;;;16.38;12.05;;;;;;;;;;10282452;28;20064;-66
2023/11/02 16:27:45;;;;;;;12.35;9.70;;;;;;;;;;10289140;28;20079;-66
2023/11/02 16:32:43;;;;;;;16.30;9.05;;;;;;;;;;10283434;28;20573;-66
2023/11/02 16:37:41;;;;;;;11.45;8.20;;;;;;;;;;10287563;28;20497;-66
2023/11/02 16:42:41;;;;;;;11.30;9.35;;;;;;;;;;10284796;28;20064;-66
2023/11/02 16:47:39;;;;;;;11.57;8.77;;;;;;;;;;10277502;28;20061;-66
2023/11/02 16:52:38;;;;;;;14.93;11.48;;;;;;;;;;10286320;28;20072;-65
2023/11/02 16:57:36;;;;;;;14.93;12.52;;;;;;;;;;10283337;28;20471;-65
2023/11/02 17:02:36;;;;;;;14.20;12.30;;;;;;;;;;10283042;28;20076;-66
2023/11/02 17:07:34;;;;;;;13.07;10.23;;;;;;;;;;10279403;28;20421;-66
2023/11/02 17:12:32;;;;;;;13.18;11.98;;;;;;;;;;10284596;28;20069;-65
2023/11/02 17:17:31;;;;;;;18.98;9.85;;;;;;;;;;10273276;28;20476;-66
2023/11/02 17:22:30;;;;;;;8.77;7.85;;;;;;;;;;10284511;28;20083;-66
2023/11/02 17:27:28;;;;;;;11.05;7.22;;;;;;;;;;10285367;28;20474;-66
2023/11/02 17:32:27;;;;;;;13.57;10.27;;;;;;;;;;10279413;28;20079;-66
2023/11/02 17:37:26;;;;;;;12.70;10.93;;;;;;;;;;10277082;28;20086;-66
2023/11/02 17:42:25;;;;;;;15.77;8.75;;;;;;;;;;10283844;28;20487;-66
2023/11/02 17:47:24;;;;;;;12.25;9.77;;;;;;;;;;10278187;28;20068;-66
2023/11/02 17:52:23;;;;;;;11.00;9.60;;;;;;;;;;10283709;28;20076;-66
2023/11/02 17:57:21;;;;;;;12.88;9.38;;;;;;;;;;10295986;28;20096;-65
2023/11/02 18:02:21;;;;;;;10.27;8.68;;;;;;;;;;10296483;28;20533;-67
2023/11/02 18:07:19;;;;;;;11.32;9.25;;;;;;;;;;10297415;28;20060;-67
2023/11/02 18:12:18;;;;;;;13.07;7.75;;;;;;;;;;10293316;28;20053;-66
2023/11/02 18:17:17;;;;;;;10.93;9.82;;;;;;;;;;10294015;28;20103;-66
2023/11/02 18:22:17;;;;;;;14.10;9.95;;;;;;;;;;10295499;28;20068;-66
2023/11/02 18:27:15;;;;;;;11.35;10.10;;;;;;;;;;10296966;28;20048;-65
2023/11/02 18:32:14;;;;;;;15.05;13.57;;;;;;;;;;10292911;28;20081;-67
2023/11/02 18:37:12;;;;;;;10.70;9.00;;;;;;;;;;10296598;28;20083;-67
2023/11/02 18:42:11;;;;;;;10.30;8.98;;;;;;;;;;10292692;28;20089;-66
2023/11/02 18:47:10;;;;;;;8.85;7.82;;;;;;;;;;10290095;28;20083;-66
2023/11/02 18:52:08;;;;;;;11.38;8.40;;;;;;;;;;10288949;28;20073;-66
2023/11/02 18:57:08;;;;;;;11.07;7.82;;;;;;;;;;10291682;28;20083;-65
2023/11/02 19:02:08;;;;;;;12.52;8.45;;;;;;;;;;10289456;28;20135;-65
2023/11/02 19:07:07;;;;;;;9.70;8.23;;;;;;;;;;10290952;28;20072;-66
2023/11/02 19:12:06;;;;;;;15.00;7.68;;;;;;;;;;10294525;28;20108;-66
2023/11/02 19:17:05;;;;;;;11.68;8.57;;;;;;;;;;10291635;28;20083;-66
2023/11/02 19:22:06;;;;;;;10.48;7.43;;;;;;;;;;10293189;28;20103;-67
2023/11/02 19:27:06;;;;;;;13.77;9.50;;;;;;;;;;10284176;28;20478;-66
2023/11/02 19:32:05;;;;;;;15.57;11.15;;;;;;;;;;10291320;28;20080;-66
2023/11/02 19:37:04;;;;;;;14.10;11.52;;;;;;;;;;10291735;28;20083;-65
2023/11/02 19:42:04;;;;;;;13.27;10.10;;;;;;;;;;10291913;28;20080;-66
2023/11/02 19:47:02;;;;;;;12.02;10.73;;;;;;;;;;10291251;28;20498;-66
2023/11/02 19:52:01;;;;;;;13.90;11.57;;;;;;;;;;10282588;28;20079;-67
2023/11/02 19:57:00;;;;;;;16.02;10.48;;;;;;;;;;10284390;28;20072;-66
2023/11/02 20:01:59;;;;;;;13.43;9.85;;;;;;;;;;10283535;28;20084;-66
2023/11/02 20:06:57;;;;;;;12.98;11.65;;;;;;;;;;10280039;28;20076;-66
2023/11/02 20:11:56;;;;;;;16.15;12.43;;;;;;;;;;10278597;28;20072;-66
2023/11/02 20:16:55;;;;;;;14.68;12.00;;;;;;;;;;10281890;28;20083;-66
2023/11/02 20:21:53;;;;;;;12.60;11.38;;;;;;;;;;10286073;28;20072;-66
2023/11/02 20:26:52;;;;;;;12.27;10.95;;;;;;;;;;10284549;28;20470;-66
2023/11/02 20:31:50;;;;;;;15.07;11.35;;;;;;;;;;10288540;28;20079;-66
2023/11/02 20:36:50;;;;;;;17.45;11.25;;;;;;;;;;10288758;28;20087;-66
2023/11/02 20:41:48;;;;;;;15.13;10.80;;;;;;;;;;10285489;28;20068;-67
2023/11/02 20:46:46;;;;;;;12.02;10.77;;;;;;;;;;10293226;28;20073;-66
2023/11/02 20:51:46;;;;;;;16.15;10.00;;;;;;;;;;10284138;28;20540;-67
2023/11/02 20:56:46;;;;;;;12.52;10.18;;;;;;;;;;10282040;28;20506;-66
2023/11/02 21:01:44;;;;;;;13.70;10.30;;;;;;;;;;10288658;28;20083;-66
2023/11/02 21:06:43;;;;;;;15.20;10.60;;;;;;;;;;10289321;28;20056;-66
2023/11/02 21:11:57;;;;;;;11.40;10.30;;;;;;;;;;10287836;28;20081;-67
2023/11/02 21:16:55;;;;;;;15.77;11.50;;;;;;;;;;10286441;28;20871;-66
2023/11/02 21:21:53;;;;;;;71.82;53.00;;;;;;;;;;10287192;28;20077;-65
2023/11/02 21:26:52;;;;;;;17.80;15.98;;;;;;;;;;10292940;28;20072;-66
2023/11/02 21:31:51;;;;;;;12.50;11.20;;;;;;;;;;10297736;28;20493;-66
2023/11/02 21:36:50;;;;;;;21.17;19.00;;;;;;;;;;10295661;28;20470;-66
2023/11/02 21:41:48;;;;;;;8.35;7.55;;;;;;;;;;10296382;28;20486;-65
2023/11/02 21:46:47;;;;;;;12.57;11.10;;;;;;;;;;10296308;28;20430;-66
2023/11/02 21:51:47;;;;;;;14.10;10.30;;;;;;;;;;10295069;28;20060;-66
2023/11/02 21:56:45;;;;;;;11.13;9.32;;;;;;;;;;10294709;28;20067;-66
2023/11/02 22:01:43;;;;;;;13.85;11.00;;;;;;;;;;10297435;28;20065;-66
2023/11/02 22:06:45;;;;;;;10.25;6.97;;;;;;;;;;10294381;28;20065;-67
2023/11/02 22:11:44;;;;;;;10.73;7.15;;;;;;;;;;10297400;28;20069;-66
2023/11/02 22:16:43;;;;;;;19.55;7.75;;;;;;;;;;10295500;28;20075;-66
2023/11/02 22:21:43;;;;;;;12.30;7.03;;;;;;;;;;10295477;28;20072;-66
2023/11/02 22:26:43;;;;;;;9.45;5.05;;;;;;;;;;10294698;28;20076;-66
2023/11/02 22:31:42;;;;;;;7.82;5.32;;;;;;;;;;10290299;28;20087;-67
2023/11/02 22:36:41;;;;;;;6.50;5.90;;;;;;;;;;10292713;28;20068;-66
2023/11/02 22:41:40;;;;;;;7.82;5.72;;;;;;;;;;10294687;28;20069;-66
2023/11/02 22:46:38;;;;;;;9.32;6.00;;;;;;;;;;10294166;28;20073;-66
2023/11/02 22:51:37;;;;;;;5.72;5.22;;;;;;;;;;10295905;28;20073;-66
2023/11/02 22:56:36;;;;;;;9.75;5.72;;;;;;;;;;10291020;28;20070;-67
2023/11/02 23:01:34;;;;;;;7.75;4.97;;;;;;;;;;10293990;28;20513;-66
2023/11/02 23:06:33;;;;;;;13.98;7.05;;;;;;;;;;10294306;28;20080;-66
2023/11/02 23:11:33;;;;;;;8.82;6.50;;;;;;;;;;10292130;28;20077;-66
2023/11/02 23:16:31;;;;;;;9.00;7.43;;;;;;;;;;10294108;28;20536;-66
2023/11/02 23:21:30;;;;;;;8.50;6.35;;;;;;;;;;10292365;28;20083;-66
2023/11/02 23:26:28;;;;;;;8.02;5.85;;;;;;;;;;10292584;28;20068;-67
2023/11/02 23:31:28;;;;;;;7.22;5.32;;;;;;;;;;10292572;28;20073;-65
2023/11/02 23:36:27;;;;;;;6.50;5.35;;;;;;;;;;10293586;28;20072;-65
2023/11/02 23:41:33;;;;;;;6.88;5.70;;;;;;;;;;10290648;28;20060;-65
2023/11/02 23:46:33;;;;;;;6.80;4.63;;;;;;;;;;10291489;28;20073;-65
2023/11/02 23:51:31;;;;;;;6.30;5.30;;;;;;;;;;10291262;28;20071;-66
2023/11/02 23:56:34;;;;;;;5.57;4.97;;;;;;;;;;10292652;28;20505;-65
